sensor_id;sensor_type;location;lat;lon;timestamp;temperature;humidity
9083;DHT22;4577;48.704;9.000;2023-01-01T00:01:14;13.10;81.00
9083;DHT22;4577;48.704;9.000;2023-01-01T00:06:11;13.00;81.30
9083;DHT22;4577;48.704;9.000;2023-01-01T00:08:37;12.90;81.40
9083;DHT22;4577;48.704;9.000;2023-01-01T00:11:04;13.10;81.80
9083;DHT22;4577;48.704;9.000;2023-01-01T00:28:06;12.80;81.60
9083;DHT22;4577;48.704;9.000;2023-01-01T00:35:26;13.00;81.70
9083;DHT22;4577;48.704;9.000;2023-01-01T00:45:11;13.10;81.20
9083;DHT22;4577;48.704;9.000;2023-01-01T00:50:03;13.10;81.40
9083;DHT22;4577;48.704;9.000;2023-01-01T00:57:21;13.00;80.70
9083;DHT22;4577;48.704;9.000;2023-01-01T00:59:46;13.00;80.90
9083;DHT22;4577;48.704;9.000;2023-01-01T01:02:12;12.90;80.90
9083;DHT22;4577;48.704;9.000;2023-01-01T01:04:38;13.00;81.00
9083;DHT22;4577;48.704;9.000;2023-01-01T01:09:29;12.80;81.30
9083;DHT22;4577;48.704;9.000;2023-01-01T01:11:55;12.80;80.90
9083;DHT22;4577;48.704;9.000;2023-01-01T01:16:46;13.00;80.90
9083;DHT22;4577;48.704;9.000;2023-01-01T01:21:43;13.00;80.90
9083;DHT22;4577;48.704;9.000;2023-01-01T01:24:12;12.90;80.90
9083;DHT22;4577;48.704;9.000;2023-01-01T01:31:34;12.80;80.90
9083;DHT22;4577;48.704;9.000;2023-01-01T01:34:00;12.80;81.00
9083;DHT22;4577;48.704;9.000;2023-01-01T01:38:52;12.70;81.20
9083;DHT22;4577;48.704;9.000;2023-01-01T01:41:20;12.80;81.30
9083;DHT22;4577;48.704;9.000;2023-01-01T01:44:01;12.80;81.30
9083;DHT22;4577;48.704;9.000;2023-01-01T01:48:56;12.70;81.40
9083;DHT22;4577;48.704;9.000;2023-01-01T01:51:27;12.70;81.50
9083;DHT22;4577;48.704;9.000;2023-01-01T01:53:58;12.70;81.50
9083;DHT22;4577;48.704;9.000;2023-01-01T01:56:57;13.10;82.20
9083;DHT22;4577;48.704;9.000;2023-01-01T01:59:26;12.30;81.40
9083;DHT22;4577;48.704;9.000;2023-01-01T02:04:20;12.60;81.60
9083;DHT22;4577;48.704;9.000;2023-01-01T02:06:47;12.60;81.50
9083;DHT22;4577;48.704;9.000;2023-01-01T02:09:13;12.60;81.70
9083;DHT22;4577;48.704;9.000;2023-01-01T02:11:39;12.70;83.20
9083;DHT22;4577;48.704;9.000;2023-01-01T02:14:04;12.60;81.20
9083;DHT22;4577;48.704;9.000;2023-01-01T02:16:38;12.80;80.40
9083;DHT22;4577;48.704;9.000;2023-01-01T02:30:56;13.30;77.50
9083;DHT22;4577;48.704;9.000;2023-01-01T02:33:24;13.40;77.20
9083;DHT22;4577;48.704;9.000;2023-01-01T02:35:55;13.40;77.00
9083;DHT22;4577;48.704;9.000;2023-01-01T02:38:35;13.50;76.80
9083;DHT22;4577;48.704;9.000;2023-01-01T02:41:05;13.50;76.40
9083;DHT22;4577;48.704;9.000;2023-01-01T02:45:58;13.50;76.20
9083;DHT22;4577;48.704;9.000;2023-01-01T02:48:52;13.50;75.70
9083;DHT22;4577;48.704;9.000;2023-01-01T02:51:28;13.50;75.50
9083;DHT22;4577;48.704;9.000;2023-01-01T02:59:33;13.60;75.20
9083;DHT22;4577;48.704;9.000;2023-01-01T03:02:32;13.60;75.20
9083;DHT22;4577;48.704;9.000;2023-01-01T03:05:24;13.60;74.90
9083;DHT22;4577;48.704;9.000;2023-01-01T03:08:13;13.60;74.90
9083;DHT22;4577;48.704;9.000;2023-01-01T03:10:50;13.60;74.80
9083;DHT22;4577;48.704;9.000;2023-01-01T03:16:09;13.70;74.50
9083;DHT22;4577;48.704;9.000;2023-01-01T03:18:46;13.80;74.30
9083;DHT22;4577;48.704;9.000;2023-01-01T03:21:39;13.80;74.50
9083;DHT22;4577;48.704;9.000;2023-01-01T03:24:07;13.80;74.60
9083;DHT22;4577;48.704;9.000;2023-01-01T03:36:38;13.60;75.30
9083;DHT22;4577;48.704;9.000;2023-01-01T03:39:52;13.60;75.40
9083;DHT22;4577;48.704;9.000;2023-01-01T03:47:28;13.60;75.20
9083;DHT22;4577;48.704;9.000;2023-01-01T03:49:55;13.60;75.00
9083;DHT22;4577;48.704;9.000;2023-01-01T03:55:18;13.70;75.20
9083;DHT22;4577;48.704;9.000;2023-01-01T03:57:55;13.70;75.00
9083;DHT22;4577;48.704;9.000;2023-01-01T04:00:37;13.60;75.00
9083;DHT22;4577;48.704;9.000;2023-01-01T04:03:12;13.60;75.20
9083;DHT22;4577;48.704;9.000;2023-01-01T04:05:41;13.50;75.10
9083;DHT22;4577;48.704;9.000;2023-01-01T04:08:07;13.50;75.10
9083;DHT22;4577;48.704;9.000;2023-01-01T04:10:37;13.50;75.40
9083;DHT22;4577;48.704;9.000;2023-01-01T04:13:05;13.50;75.60
9083;DHT22;4577;48.704;9.000;2023-01-01T04:15:31;13.50;75.40
9083;DHT22;4577;48.704;9.000;2023-01-01T04:17:57;13.40;75.30
9083;DHT22;4577;48.704;9.000;2023-01-01T04:20:23;13.40;75.40
9083;DHT22;4577;48.704;9.000;2023-01-01T04:22:49;13.40;75.80
9083;DHT22;4577;48.704;9.000;2023-01-01T04:27:44;13.40;75.70
9083;DHT22;4577;48.704;9.000;2023-01-01T04:30:12;13.50;75.70
9083;DHT22;4577;48.704;9.000;2023-01-01T04:32:38;13.60;75.60
9083;DHT22;4577;48.704;9.000;2023-01-01T04:35:05;13.50;75.40
9083;DHT22;4577;48.704;9.000;2023-01-01T04:39:57;13.50;75.40
9083;DHT22;4577;48.704;9.000;2023-01-01T04:42:23;13.40;75.40
9083;DHT22;4577;48.704;9.000;2023-01-01T04:47:14;13.20;76.10
9083;DHT22;4577;48.704;9.000;2023-01-01T04:52:06;13.20;76.60
9083;DHT22;4577;48.704;9.000;2023-01-01T04:54:32;13.10;76.60
9083;DHT22;4577;48.704;9.000;2023-01-01T04:56:57;13.00;76.40
9083;DHT22;4577;48.704;9.000;2023-01-01T04:59:23;13.20;76.20
9083;DHT22;4577;48.704;9.000;2023-01-01T05:01:49;13.30;75.70
9083;DHT22;4577;48.704;9.000;2023-01-01T05:04:15;13.30;75.70
9083;DHT22;4577;48.704;9.000;2023-01-01T05:09:09;13.40;75.20
9083;DHT22;4577;48.704;9.000;2023-01-01T05:11:35;13.40;75.10
9083;DHT22;4577;48.704;9.000;2023-01-01T05:14:01;13.50;74.90
9083;DHT22;4577;48.704;9.000;2023-01-01T05:16:36;13.50;75.00
9083;DHT22;4577;48.704;9.000;2023-01-01T05:21:30;13.50;74.80
9083;DHT22;4577;48.704;9.000;2023-01-01T05:24:04;13.30;74.70
9083;DHT22;4577;48.704;9.000;2023-01-01T05:26:32;13.40;74.90
9083;DHT22;4577;48.704;9.000;2023-01-01T05:29:00;13.40;74.70
9083;DHT22;4577;48.704;9.000;2023-01-01T05:31:28;13.40;74.60
9083;DHT22;4577;48.704;9.000;2023-01-01T05:36:29;13.40;74.40
9083;DHT22;4577;48.704;9.000;2023-01-01T05:38:55;13.40;74.30
9083;DHT22;4577;48.704;9.000;2023-01-01T05:41:21;13.50;74.30
9083;DHT22;4577;48.704;9.000;2023-01-01T05:43:48;13.40;74.20
9083;DHT22;4577;48.704;9.000;2023-01-01T05:46:16;13.40;74.10
9083;DHT22;4577;48.704;9.000;2023-01-01T05:48:42;13.40;74.20
9083;DHT22;4577;48.704;9.000;2023-01-01T05:53:39;13.40;74.00
9083;DHT22;4577;48.704;9.000;2023-01-01T05:56:05;13.40;74.00
9083;DHT22;4577;48.704;9.000;2023-01-01T05:58:33;13.40;73.80
9083;DHT22;4577;48.704;9.000;2023-01-01T06:03:38;13.20;74.00
9083;DHT22;4577;48.704;9.000;2023-01-01T06:06:12;13.30;74.30
9083;DHT22;4577;48.704;9.000;2023-01-01T06:08:38;13.10;74.70
9083;DHT22;4577;48.704;9.000;2023-01-01T06:11:06;13.00;75.10
9083;DHT22;4577;48.704;9.000;2023-01-01T06:13:33;13.50;75.90
9083;DHT22;4577;48.704;9.000;2023-01-01T06:16:00;12.90;75.80
9083;DHT22;4577;48.704;9.000;2023-01-01T06:18:30;12.80;76.00
9083;DHT22;4577;48.704;9.000;2023-01-01T06:21:13;12.80;76.10
9083;DHT22;4577;48.704;9.000;2023-01-01T06:23:39;12.80;76.20
9083;DHT22;4577;48.704;9.000;2023-01-01T06:26:20;12.70;76.20
9083;DHT22;4577;48.704;9.000;2023-01-01T06:28:47;12.80;76.30
9083;DHT22;4577;48.704;9.000;2023-01-01T06:31:17;12.70;76.20
9083;DHT22;4577;48.704;9.000;2023-01-01T06:33:44;12.70;76.20
9083;DHT22;4577;48.704;9.000;2023-01-01T06:36:12;12.70;76.10
9083;DHT22;4577;48.704;9.000;2023-01-01T06:38:40;12.70;76.30
9083;DHT22;4577;48.704;9.000;2023-01-01T06:41:09;13.10;76.80
9083;DHT22;4577;48.704;9.000;2023-01-01T06:43:35;12.60;76.40
9083;DHT22;4577;48.704;9.000;2023-01-01T06:48:36;12.60;76.50
9083;DHT22;4577;48.704;9.000;2023-01-01T06:51:13;12.60;76.40
9083;DHT22;4577;48.704;9.000;2023-01-01T06:53:39;12.60;76.30
9083;DHT22;4577;48.704;9.000;2023-01-01T07:01:08;12.60;76.40
9083;DHT22;4577;48.704;9.000;2023-01-01T07:03:35;12.50;76.40
9083;DHT22;4577;48.704;9.000;2023-01-01T07:06:01;12.60;76.70
9083;DHT22;4577;48.704;9.000;2023-01-01T07:08:27;12.50;76.80
9083;DHT22;4577;48.704;9.000;2023-01-01T07:10:53;12.40;76.80
9083;DHT22;4577;48.704;9.000;2023-01-01T07:13:22;12.30;76.90
9083;DHT22;4577;48.704;9.000;2023-01-01T07:15:48;12.40;77.20
9083;DHT22;4577;48.704;9.000;2023-01-01T07:18:13;12.40;77.40
9083;DHT22;4577;48.704;9.000;2023-01-01T07:23:05;12.40;78.60
9083;DHT22;4577;48.704;9.000;2023-01-01T07:25:31;12.30;77.20
9083;DHT22;4577;48.704;9.000;2023-01-01T07:27:56;12.10;76.70
9083;DHT22;4577;48.704;9.000;2023-01-01T07:30:22;12.30;76.90
9083;DHT22;4577;48.704;9.000;2023-01-01T07:32:53;12.40;77.00
9083;DHT22;4577;48.704;9.000;2023-01-01T07:35:19;12.30;76.90
9083;DHT22;4577;48.704;9.000;2023-01-01T07:37:45;12.30;77.00
9083;DHT22;4577;48.704;9.000;2023-01-01T07:42:37;12.30;76.90
9083;DHT22;4577;48.704;9.000;2023-01-01T07:45:02;12.40;77.00
9083;DHT22;4577;48.704;9.000;2023-01-01T07:54:46;12.40;76.90
9083;DHT22;4577;48.704;9.000;2023-01-01T07:59:38;12.40;77.10
9083;DHT22;4577;48.704;9.000;2023-01-01T08:02:04;12.40;76.70
9083;DHT22;4577;48.704;9.000;2023-01-01T08:04:30;12.40;76.60
9083;DHT22;4577;48.704;9.000;2023-01-01T08:09:21;12.50;76.80
9083;DHT22;4577;48.704;9.000;2023-01-01T08:11:47;12.50;76.60
9083;DHT22;4577;48.704;9.000;2023-01-01T08:16:39;12.50;76.70
9083;DHT22;4577;48.704;9.000;2023-01-01T08:19:05;12.50;76.80
9083;DHT22;4577;48.704;9.000;2023-01-01T08:21:30;12.50;76.90
9083;DHT22;4577;48.704;9.000;2023-01-01T08:23:56;12.30;77.10
9083;DHT22;4577;48.704;9.000;2023-01-01T08:26:31;12.30;76.90
9083;DHT22;4577;48.704;9.000;2023-01-01T08:28:57;12.40;76.50
9083;DHT22;4577;48.704;9.000;2023-01-01T08:31:23;12.50;76.00
9083;DHT22;4577;48.704;9.000;2023-01-01T08:33:49;12.50;75.90
9083;DHT22;4577;48.704;9.000;2023-01-01T08:36:15;12.50;76.30
9083;DHT22;4577;48.704;9.000;2023-01-01T08:38:41;12.50;76.00
9083;DHT22;4577;48.704;9.000;2023-01-01T08:41:08;12.40;76.10
9083;DHT22;4577;48.704;9.000;2023-01-01T08:43:33;12.50;76.50
9083;DHT22;4577;48.704;9.000;2023-01-01T08:48:25;12.30;76.30
9083;DHT22;4577;48.704;9.000;2023-01-01T08:50:55;12.60;76.60
9083;DHT22;4577;48.704;9.000;2023-01-01T08:56:01;12.50;76.70
9083;DHT22;4577;48.704;9.000;2023-01-01T08:58:28;12.50;76.80
9083;DHT22;4577;48.704;9.000;2023-01-01T09:00:54;12.50;76.60
9083;DHT22;4577;48.704;9.000;2023-01-01T09:03:20;12.50;76.80
9083;DHT22;4577;48.704;9.000;2023-01-01T09:05:46;12.60;76.70
9083;DHT22;4577;48.704;9.000;2023-01-01T09:08:13;12.70;76.60
9083;DHT22;4577;48.704;9.000;2023-01-01T09:10:39;12.70;76.40
9083;DHT22;4577;48.704;9.000;2023-01-01T09:13:07;12.80;76.30
9083;DHT22;4577;48.704;9.000;2023-01-01T09:15:33;12.80;76.00
9083;DHT22;4577;48.704;9.000;2023-01-01T09:17:59;12.80;76.10
9083;DHT22;4577;48.704;9.000;2023-01-01T09:22:51;12.80;75.70
9083;DHT22;4577;48.704;9.000;2023-01-01T09:25:16;12.90;75.90
9083;DHT22;4577;48.704;9.000;2023-01-01T09:27:42;12.90;75.70
9083;DHT22;4577;48.704;9.000;2023-01-01T09:30:08;13.00;75.90
9083;DHT22;4577;48.704;9.000;2023-01-01T09:32:34;13.10;75.80
9083;DHT22;4577;48.704;9.000;2023-01-01T09:35:00;13.20;75.10
9083;DHT22;4577;48.704;9.000;2023-01-01T09:37:26;13.30;74.80
9083;DHT22;4577;48.704;9.000;2023-01-01T09:42:28;13.40;74.10
9083;DHT22;4577;48.704;9.000;2023-01-01T09:47:36;13.50;74.10
9083;DHT22;4577;48.704;9.000;2023-01-01T09:52:59;13.40;74.50
9083;DHT22;4577;48.704;9.000;2023-01-01T09:55:43;13.50;74.10
9083;DHT22;4577;48.704;9.000;2023-01-01T09:58:11;13.50;74.30
9083;DHT22;4577;48.704;9.000;2023-01-01T10:00:39;13.50;74.20
9083;DHT22;4577;48.704;9.000;2023-01-01T10:03:17;13.60;74.40
9083;DHT22;4577;48.704;9.000;2023-01-01T10:06:03;13.60;73.70
9083;DHT22;4577;48.704;9.000;2023-01-01T10:14:00;13.80;74.30
9083;DHT22;4577;48.704;9.000;2023-01-01T10:16:41;13.70;74.30
9083;DHT22;4577;48.704;9.000;2023-01-01T10:21:52;14.00;73.60
9083;DHT22;4577;48.704;9.000;2023-01-01T10:24:45;14.00;73.10
9083;DHT22;4577;48.704;9.000;2023-01-01T10:27:29;14.00;72.50
9083;DHT22;4577;48.704;9.000;2023-01-01T10:29:56;14.00;72.10
9083;DHT22;4577;48.704;9.000;2023-01-01T10:32:28;14.10;72.00
9083;DHT22;4577;48.704;9.000;2023-01-01T10:34:56;14.10;71.50
9083;DHT22;4577;48.704;9.000;2023-01-01T10:37:23;14.10;71.20
9083;DHT22;4577;48.704;9.000;2023-01-01T10:39:49;14.10;71.60
9083;DHT22;4577;48.704;9.000;2023-01-01T10:42:15;14.30;71.50
9083;DHT22;4577;48.704;9.000;2023-01-01T10:44:41;14.30;71.60
9083;DHT22;4577;48.704;9.000;2023-01-01T10:47:24;14.30;70.90
9083;DHT22;4577;48.704;9.000;2023-01-01T10:52:25;14.40;70.60
9083;DHT22;4577;48.704;9.000;2023-01-01T10:54:51;14.40;70.00
9083;DHT22;4577;48.704;9.000;2023-01-01T10:59:52;14.60;69.10
9083;DHT22;4577;48.704;9.000;2023-01-01T11:02:19;14.60;69.50
9083;DHT22;4577;48.704;9.000;2023-01-01T11:04:46;14.60;69.50
9083;DHT22;4577;48.704;9.000;2023-01-01T11:07:32;14.60;68.40
9083;DHT22;4577;48.704;9.000;2023-01-01T11:10:00;14.60;68.70
9083;DHT22;4577;48.704;9.000;2023-01-01T11:12:30;14.80;68.50
9083;DHT22;4577;48.704;9.000;2023-01-01T11:14:58;14.80;68.30
9083;DHT22;4577;48.704;9.000;2023-01-01T11:17:29;14.80;68.30
9083;DHT22;4577;48.704;9.000;2023-01-01T11:19:57;14.80;68.60
9083;DHT22;4577;48.704;9.000;2023-01-01T11:22:43;14.90;68.50
9083;DHT22;4577;48.704;9.000;2023-01-01T11:25:29;14.80;68.40
9083;DHT22;4577;48.704;9.000;2023-01-01T11:30:41;15.00;67.70
9083;DHT22;4577;48.704;9.000;2023-01-01T11:35:53;15.20;68.00
9083;DHT22;4577;48.704;9.000;2023-01-01T11:38:20;15.20;67.30
9083;DHT22;4577;48.704;9.000;2023-01-01T11:40:49;15.20;66.30
9083;DHT22;4577;48.704;9.000;2023-01-01T11:43:21;15.20;66.00
9083;DHT22;4577;48.704;9.000;2023-01-01T11:45:47;15.20;65.70
9083;DHT22;4577;48.704;9.000;2023-01-01T11:48:25;17.00;66.90
9083;DHT22;4577;48.704;9.000;2023-01-01T11:51:26;15.10;64.90
9083;DHT22;4577;48.704;9.000;2023-01-01T11:56:22;15.30;65.30
9083;DHT22;4577;48.704;9.000;2023-01-01T11:58:57;15.40;64.90
9083;DHT22;4577;48.704;9.000;2023-01-01T12:01:35;15.50;63.70
9083;DHT22;4577;48.704;9.000;2023-01-01T12:07:09;15.50;63.80
9083;DHT22;4577;48.704;9.000;2023-01-01T12:15:13;15.70;62.70
9083;DHT22;4577;48.704;9.000;2023-01-01T12:17:45;15.70;62.00
9083;DHT22;4577;48.704;9.000;2023-01-01T12:20:35;15.70;62.40
9083;DHT22;4577;48.704;9.000;2023-01-01T12:23:03;15.80;61.80
9083;DHT22;4577;48.704;9.000;2023-01-01T12:25:37;15.90;61.50
9083;DHT22;4577;48.704;9.000;2023-01-01T12:28:17;15.90;61.90
9083;DHT22;4577;48.704;9.000;2023-01-01T12:34:13;15.90;63.20
9083;DHT22;4577;48.704;9.000;2023-01-01T12:56:04;16.10;64.40
9083;DHT22;4577;48.704;9.000;2023-01-01T12:58:43;16.00;64.30
9083;DHT22;4577;48.704;9.000;2023-01-01T13:01:23;16.00;64.30
9083;DHT22;4577;48.704;9.000;2023-01-01T13:06:23;16.00;64.50
9083;DHT22;4577;48.704;9.000;2023-01-01T13:08:54;16.10;64.90
9083;DHT22;4577;48.704;9.000;2023-01-01T13:11:21;16.10;64.50
9083;DHT22;4577;48.704;9.000;2023-01-01T13:16:32;16.20;64.80
9083;DHT22;4577;48.704;9.000;2023-01-01T13:21:25;16.30;64.80
9083;DHT22;4577;48.704;9.000;2023-01-01T13:23:53;16.30;64.40
9083;DHT22;4577;48.704;9.000;2023-01-01T13:40:03;16.60;62.90
9083;DHT22;4577;48.704;9.000;2023-01-01T13:45:28;16.70;64.30
9083;DHT22;4577;48.704;9.000;2023-01-01T13:53:43;16.80;62.00
9083;DHT22;4577;48.704;9.000;2023-01-01T13:59:44;17.00;64.30
9083;DHT22;4577;48.704;9.000;2023-01-01T14:02:34;16.80;62.60
9083;DHT22;4577;48.704;9.000;2023-01-01T14:05:06;17.10;61.60
9083;DHT22;4577;48.704;9.000;2023-01-01T14:15:28;16.80;61.70
9083;DHT22;4577;48.704;9.000;2023-01-01T14:17:56;16.80;61.40
9083;DHT22;4577;48.704;9.000;2023-01-01T14:20:33;16.90;60.20
9083;DHT22;4577;48.704;9.000;2023-01-01T14:23:15;16.90;60.50
9083;DHT22;4577;48.704;9.000;2023-01-01T14:25:42;16.90;60.10
9083;DHT22;4577;48.704;9.000;2023-01-01T14:28:23;16.90;60.10
9083;DHT22;4577;48.704;9.000;2023-01-01T14:33:30;17.00;59.80
9083;DHT22;4577;48.704;9.000;2023-01-01T14:36:01;16.80;59.10
9083;DHT22;4577;48.704;9.000;2023-01-01T14:43:54;16.70;59.40
9083;DHT22;4577;48.704;9.000;2023-01-01T14:46:24;16.60;59.70
9083;DHT22;4577;48.704;9.000;2023-01-01T14:48:53;16.60;60.00
9083;DHT22;4577;48.704;9.000;2023-01-01T14:51:21;16.60;59.70
9083;DHT22;4577;48.704;9.000;2023-01-01T14:53:48;16.50;59.40
9083;DHT22;4577;48.704;9.000;2023-01-01T14:56:35;16.50;59.90
9083;DHT22;4577;48.704;9.000;2023-01-01T14:59:24;16.30;60.20
9083;DHT22;4577;48.704;9.000;2023-01-01T15:02:02;16.40;61.10
9083;DHT22;4577;48.704;9.000;2023-01-01T15:06:56;16.40;62.10
9083;DHT22;4577;48.704;9.000;2023-01-01T15:09:22;16.30;61.30
9083;DHT22;4577;48.704;9.000;2023-01-01T15:11:52;16.20;60.70
9083;DHT22;4577;48.704;9.000;2023-01-01T15:14:35;16.10;60.90
9083;DHT22;4577;48.704;9.000;2023-01-01T15:17:09;16.10;60.70
9083;DHT22;4577;48.704;9.000;2023-01-01T15:19:37;16.00;61.10
9083;DHT22;4577;48.704;9.000;2023-01-01T15:22:19;16.00;61.60
9083;DHT22;4577;48.704;9.000;2023-01-01T15:24:48;15.90;61.70
9083;DHT22;4577;48.704;9.000;2023-01-01T15:27:21;15.80;61.50
9083;DHT22;4577;48.704;9.000;2023-01-01T15:32:15;15.70;62.60
9083;DHT22;4577;48.704;9.000;2023-01-01T15:34:50;15.70;63.80
9083;DHT22;4577;48.704;9.000;2023-01-01T15:40:30;15.50;65.00
9083;DHT22;4577;48.704;9.000;2023-01-01T15:43:04;15.30;65.00
9083;DHT22;4577;48.704;9.000;2023-01-01T15:45:40;15.30;65.60
9083;DHT22;4577;48.704;9.000;2023-01-01T15:53:24;15.10;65.20
9083;DHT22;4577;48.704;9.000;2023-01-01T15:56:00;15.10;66.00
9083;DHT22;4577;48.704;9.000;2023-01-01T15:58:34;15.10;66.20
9083;DHT22;4577;48.704;9.000;2023-01-01T16:01:06;15.00;66.90
9083;DHT22;4577;48.704;9.000;2023-01-01T16:03:33;14.90;67.60
9083;DHT22;4577;48.704;9.000;2023-01-01T16:06:00;14.80;67.90
9083;DHT22;4577;48.704;9.000;2023-01-01T16:08:26;14.80;68.10
9083;DHT22;4577;48.704;9.000;2023-01-01T16:13:18;14.70;68.60
9083;DHT22;4577;48.704;9.000;2023-01-01T16:15:50;14.70;68.90
9083;DHT22;4577;48.704;9.000;2023-01-01T16:18:17;14.60;68.60
9083;DHT22;4577;48.704;9.000;2023-01-01T16:20:46;14.50;69.00
9083;DHT22;4577;48.704;9.000;2023-01-01T16:23:12;14.40;68.90
9083;DHT22;4577;48.704;9.000;2023-01-01T16:28:14;14.40;69.40
9083;DHT22;4577;48.704;9.000;2023-01-01T16:30:43;14.20;69.60
9083;DHT22;4577;48.704;9.000;2023-01-01T16:33:17;14.30;70.10
9083;DHT22;4577;48.704;9.000;2023-01-01T16:35:43;14.30;70.10
9083;DHT22;4577;48.704;9.000;2023-01-01T16:38:10;14.20;70.20
9083;DHT22;4577;48.704;9.000;2023-01-01T16:40:36;14.20;70.70
9083;DHT22;4577;48.704;9.000;2023-01-01T16:43:02;14.10;71.10
9083;DHT22;4577;48.704;9.000;2023-01-01T16:55:13;13.90;71.90
9083;DHT22;4577;48.704;9.000;2023-01-01T16:57:39;13.90;72.10
9083;DHT22;4577;48.704;9.000;2023-01-01T17:00:06;13.90;72.30
9083;DHT22;4577;48.704;9.000;2023-01-01T17:02:32;13.90;72.60
9083;DHT22;4577;48.704;9.000;2023-01-01T17:14:42;13.90;72.40
9083;DHT22;4577;48.704;9.000;2023-01-01T17:17:07;13.80;72.70
9083;DHT22;4577;48.704;9.000;2023-01-01T17:21:59;13.50;72.80
9083;DHT22;4577;48.704;9.000;2023-01-01T17:26:53;13.60;72.90
9083;DHT22;4577;48.704;9.000;2023-01-01T17:29:20;13.70;72.70
9083;DHT22;4577;48.704;9.000;2023-01-01T17:31:46;13.70;72.30
9083;DHT22;4577;48.704;9.000;2023-01-01T17:34:12;13.90;71.90
9083;DHT22;4577;48.704;9.000;2023-01-01T17:36:39;13.90;71.20
9083;DHT22;4577;48.704;9.000;2023-01-01T17:41:30;14.00;71.20
9083;DHT22;4577;48.704;9.000;2023-01-01T17:46:25;14.20;73.10
9083;DHT22;4577;48.704;9.000;2023-01-01T17:48:52;14.30;72.00
9083;DHT22;4577;48.704;9.000;2023-01-01T17:56:13;14.10;69.70
9083;DHT22;4577;48.704;9.000;2023-01-01T17:58:40;14.20;70.00
9083;DHT22;4577;48.704;9.000;2023-01-01T18:01:28;14.10;69.90
9083;DHT22;4577;48.704;9.000;2023-01-01T18:04:06;14.00;70.00
9083;DHT22;4577;48.704;9.000;2023-01-01T18:06:34;14.00;70.00
9083;DHT22;4577;48.704;9.000;2023-01-01T18:11:28;14.00;70.20
9083;DHT22;4577;48.704;9.000;2023-01-01T18:13:58;13.90;69.60
9083;DHT22;4577;48.704;9.000;2023-01-01T18:16:24;14.00;69.70
9083;DHT22;4577;48.704;9.000;2023-01-01T18:18:50;14.00;69.00
9083;DHT22;4577;48.704;9.000;2023-01-01T18:21:19;14.00;69.00
9083;DHT22;4577;48.704;9.000;2023-01-01T18:23:51;14.00;69.20
9083;DHT22;4577;48.704;9.000;2023-01-01T18:26:18;14.00;68.70
9083;DHT22;4577;48.704;9.000;2023-01-01T18:28:51;14.00;69.30
9083;DHT22;4577;48.704;9.000;2023-01-01T18:36:13;13.80;70.00
9083;DHT22;4577;48.704;9.000;2023-01-01T18:38:40;13.70;71.40
9083;DHT22;4577;48.704;9.000;2023-01-01T18:41:24;13.70;71.70
9083;DHT22;4577;48.704;9.000;2023-01-01T18:43:55;13.60;71.90
9083;DHT22;4577;48.704;9.000;2023-01-01T18:48:48;13.60;72.10
9083;DHT22;4577;48.704;9.000;2023-01-01T18:51:20;13.60;72.10
9083;DHT22;4577;48.704;9.000;2023-01-01T18:53:48;13.50;72.20
9083;DHT22;4577;48.704;9.000;2023-01-01T18:58:44;13.40;71.90
9083;DHT22;4577;48.704;9.000;2023-01-01T19:01:16;13.50;71.50
9083;DHT22;4577;48.704;9.000;2023-01-01T19:03:54;13.40;70.60
9083;DHT22;4577;48.704;9.000;2023-01-01T19:08:54;13.50;68.90
9083;DHT22;4577;48.704;9.000;2023-01-01T19:11:21;13.50;68.60
9083;DHT22;4577;48.704;9.000;2023-01-01T19:16:27;13.50;68.00
9083;DHT22;4577;48.704;9.000;2023-01-01T19:24:23;13.60;67.10
9083;DHT22;4577;48.704;9.000;2023-01-01T19:26:55;13.60;66.90
9083;DHT22;4577;48.704;9.000;2023-01-01T19:29:24;13.60;66.70
9083;DHT22;4577;48.704;9.000;2023-01-01T19:31:55;13.60;66.80
9083;DHT22;4577;48.704;9.000;2023-01-01T19:34:22;13.70;66.40
9083;DHT22;4577;48.704;9.000;2023-01-01T19:36:48;13.70;66.30
9083;DHT22;4577;48.704;9.000;2023-01-01T19:41:41;14.50;67.00
9083;DHT22;4577;48.704;9.000;2023-01-01T19:44:07;13.70;66.20
9083;DHT22;4577;48.704;9.000;2023-01-01T19:46:39;13.70;66.50
9083;DHT22;4577;48.704;9.000;2023-01-01T19:49:07;13.70;66.10
9083;DHT22;4577;48.704;9.000;2023-01-01T19:51:36;13.60;66.20
9083;DHT22;4577;48.704;9.000;2023-01-01T20:01:21;13.70;66.60
9083;DHT22;4577;48.704;9.000;2023-01-01T20:03:49;13.70;66.70
9083;DHT22;4577;48.704;9.000;2023-01-01T20:08:43;13.70;65.70
9083;DHT22;4577;48.704;9.000;2023-01-01T20:18:28;13.60;66.10
9083;DHT22;4577;48.704;9.000;2023-01-01T20:23:38;13.70;65.70
9083;DHT22;4577;48.704;9.000;2023-01-01T20:26:04;13.60;65.50
9083;DHT22;4577;48.704;9.000;2023-01-01T20:28:33;13.60;65.70
9083;DHT22;4577;48.704;9.000;2023-01-01T20:33:46;13.60;65.20
9083;DHT22;4577;48.704;9.000;2023-01-01T20:36:12;13.50;65.40
9083;DHT22;4577;48.704;9.000;2023-01-01T20:38:57;13.60;65.60
9083;DHT22;4577;48.704;9.000;2023-01-01T20:41:22;13.50;65.40
9083;DHT22;4577;48.704;9.000;2023-01-01T20:43:53;13.50;65.20
9083;DHT22;4577;48.704;9.000;2023-01-01T20:46:19;13.50;65.50
9083;DHT22;4577;48.704;9.000;2023-01-01T20:53:37;13.40;65.30
9083;DHT22;4577;48.704;9.000;2023-01-01T20:56:03;13.40;65.10
9083;DHT22;4577;48.704;9.000;2023-01-01T21:00:57;13.50;65.10
9083;DHT22;4577;48.704;9.000;2023-01-01T21:05:49;13.50;64.50
9083;DHT22;4577;48.704;9.000;2023-01-01T21:13:07;13.50;65.00
9083;DHT22;4577;48.704;9.000;2023-01-01T21:15:33;13.50;65.40
9083;DHT22;4577;48.704;9.000;2023-01-01T21:17:59;13.50;65.40
9083;DHT22;4577;48.704;9.000;2023-01-01T21:20:43;13.40;65.60
9083;DHT22;4577;48.704;9.000;2023-01-01T21:23:16;13.40;65.60
9083;DHT22;4577;48.704;9.000;2023-01-01T21:25:47;13.40;65.40
9083;DHT22;4577;48.704;9.000;2023-01-01T21:28:16;13.40;65.70
9083;DHT22;4577;48.704;9.000;2023-01-01T21:30:50;13.40;65.40
9083;DHT22;4577;48.704;9.000;2023-01-01T21:33:30;13.50;65.30
9083;DHT22;4577;48.704;9.000;2023-01-01T21:38:24;13.50;65.20
9083;DHT22;4577;48.704;9.000;2023-01-01T21:40:52;13.50;65.00
9083;DHT22;4577;48.704;9.000;2023-01-01T21:46:11;13.40;65.40
9083;DHT22;4577;48.704;9.000;2023-01-01T21:51:23;13.50;65.70
9083;DHT22;4577;48.704;9.000;2023-01-01T21:56:37;13.30;66.10
9083;DHT22;4577;48.704;9.000;2023-01-01T21:59:17;13.20;66.10
9083;DHT22;4577;48.704;9.000;2023-01-01T22:04:46;13.20;66.50
9083;DHT22;4577;48.704;9.000;2023-01-01T22:09:50;13.20;66.60
9083;DHT22;4577;48.704;9.000;2023-01-01T22:12:22;13.20;66.30
9083;DHT22;4577;48.704;9.000;2023-01-01T22:14:50;13.30;66.80
9083;DHT22;4577;48.704;9.000;2023-01-01T22:17:25;13.20;66.60
9083;DHT22;4577;48.704;9.000;2023-01-01T22:22:20;13.40;67.10
9083;DHT22;4577;48.704;9.000;2023-01-01T22:24:53;13.30;66.50
9083;DHT22;4577;48.704;9.000;2023-01-01T22:27:38;13.30;66.30
9083;DHT22;4577;48.704;9.000;2023-01-01T22:30:32;13.30;66.70
9083;DHT22;4577;48.704;9.000;2023-01-01T22:32:58;13.30;66.40
9083;DHT22;4577;48.704;9.000;2023-01-01T22:35:31;13.30;67.20
9083;DHT22;4577;48.704;9.000;2023-01-01T22:37:59;13.40;66.80
9083;DHT22;4577;48.704;9.000;2023-01-01T22:40:29;13.30;66.50
9083;DHT22;4577;48.704;9.000;2023-01-01T22:43:12;13.30;66.70
9083;DHT22;4577;48.704;9.000;2023-01-01T22:46:03;13.30;66.70
9083;DHT22;4577;48.704;9.000;2023-01-01T22:48:35;13.30;66.80
9083;DHT22;4577;48.704;9.000;2023-01-01T22:51:05;13.30;67.00
9083;DHT22;4577;48.704;9.000;2023-01-01T22:56:00;13.20;67.10
9083;DHT22;4577;48.704;9.000;2023-01-01T22:58:26;13.30;67.10
9083;DHT22;4577;48.704;9.000;2023-01-01T23:00:52;13.30;66.90